sensor_id;sensor_type;location;lat;lon;timestamp;pressure;altitude;pressure_sealevel;temperature;humidity
71107;BME280;58763;47.982;11.516;2023-04-06T00:00:52;94309.06;;;1.25;54.92
71107;BME280;58763;47.982;11.516;2023-04-06T00:03:18;94312.91;;;1.29;54.88
71107;BME280;58763;47.982;11.516;2023-04-06T00:05:44;94306.56;;;1.30;55.10
71107;BME280;58763;47.982;11.516;2023-04-06T00:08:09;94302.94;;;1.24;54.95
71107;BME280;58763;47.982;11.516;2023-04-06T00:10:35;94305.69;;;1.18;55.51
71107;BME280;58763;47.982;11.516;2023-04-06T00:13:01;94296.53;;;1.14;54.99
71107;BME280;58763;47.982;11.516;2023-04-06T00:15:27;94294.53;;;1.09;55.57
71107;BME280;58763;47.982;11.516;2023-04-06T00:17:53;94301.47;;;1.10;55.67
71107;BME280;58763;47.982;11.516;2023-04-06T00:20:19;94298.22;;;1.08;55.69
71107;BME280;58763;47.982;11.516;2023-04-06T00:22:44;94299.88;;;1.09;55.77
71107;BME280;58763;47.982;11.516;2023-04-06T00:25:10;94293.00;;;1.02;55.76
71107;BME280;58763;47.982;11.516;2023-04-06T00:27:37;94294.84;;;1.01;55.59
71107;BME280;58763;47.982;11.516;2023-04-06T00:30:04;94292.50;;;0.93;55.80
71107;BME280;58763;47.982;11.516;2023-04-06T00:32:30;94302.47;;;0.98;55.73
71107;BME280;58763;47.982;11.516;2023-04-06T00:34:56;94300.03;;;0.96;56.29
71107;BME280;58763;47.982;11.516;2023-04-06T00:37:21;94295.16;;;0.93;56.15
71107;BME280;58763;47.982;11.516;2023-04-06T00:39:47;94300.09;;;0.90;56.84
71107;BME280;58763;47.982;11.516;2023-04-06T00:42:13;94295.69;;;0.84;56.42
71107;BME280;58763;47.982;11.516;2023-04-06T00:44:40;94295.81;;;0.70;56.89
71107;BME280;58763;47.982;11.516;2023-04-06T00:47:06;94302.34;;;0.75;56.35
71107;BME280;58763;47.982;11.516;2023-04-06T00:49:32;94294.22;;;0.69;56.79
71107;BME280;58763;47.982;11.516;2023-04-06T00:52:01;94299.16;;;0.66;56.79
71107;BME280;58763;47.982;11.516;2023-04-06T00:54:28;94301.22;;;0.64;57.08
71107;BME280;58763;47.982;11.516;2023-04-06T00:56:54;94297.91;;;0.68;57.19
71107;BME280;58763;47.982;11.516;2023-04-06T00:59:20;94298.34;;;0.65;57.10
71107;BME280;58763;47.982;11.516;2023-04-06T01:01:46;94288.97;;;0.63;56.89
71107;BME280;58763;47.982;11.516;2023-04-06T01:04:11;94298.34;;;0.65;56.62
71107;BME280;58763;47.982;11.516;2023-04-06T01:06:37;94294.66;;;0.66;56.65
71107;BME280;58763;47.982;11.516;2023-04-06T01:09:02;94294.88;;;0.65;56.82
71107;BME280;58763;47.982;11.516;2023-04-06T01:11:28;94299.22;;;0.59;56.89
71107;BME280;58763;47.982;11.516;2023-04-06T01:13:55;94303.00;;;0.52;57.08
71107;BME280;58763;47.982;11.516;2023-04-06T01:16:20;94302.63;;;0.30;57.65
71107;BME280;58763;47.982;11.516;2023-04-06T01:18:46;94296.25;;;0.13;58.57
71107;BME280;58763;47.982;11.516;2023-04-06T01:21:12;94290.75;;;0.08;59.22
71107;BME280;58763;47.982;11.516;2023-04-06T01:23:43;94298.22;;;-0.01;59.04
71107;BME280;58763;47.982;11.516;2023-04-06T01:26:09;94298.69;;;-0.10;59.97
71107;BME280;58763;47.982;11.516;2023-04-06T01:28:35;94297.25;;;-0.31;61.06
71107;BME280;58763;47.982;11.516;2023-04-06T01:31:03;94295.25;;;-0.42;61.95
71107;BME280;58763;47.982;11.516;2023-04-06T01:33:28;94287.16;;;-0.53;61.94
71107;BME280;58763;47.982;11.516;2023-04-06T01:39:29;94290.09;;;-0.61;62.52
71107;BME280;58763;47.982;11.516;2023-04-06T01:41:54;94285.22;;;-0.64;62.40
71107;BME280;58763;47.982;11.516;2023-04-06T01:44:21;94278.91;;;-0.70;63.06
71107;BME280;58763;47.982;11.516;2023-04-06T01:46:47;94273.81;;;-0.72;62.98
71107;BME280;58763;47.982;11.516;2023-04-06T01:49:12;94272.56;;;-0.69;63.40
71107;BME280;58763;47.982;11.516;2023-04-06T01:51:38;94272.81;;;-0.71;63.33
71107;BME280;58763;47.982;11.516;2023-04-06T01:54:04;94274.00;;;-0.66;63.21
71107;BME280;58763;47.982;11.516;2023-04-06T01:56:30;94270.16;;;-0.71;63.30
71107;BME280;58763;47.982;11.516;2023-04-06T01:58:55;94273.00;;;-0.72;62.86
71107;BME280;58763;47.982;11.516;2023-04-06T02:01:21;94272.53;;;-0.62;62.78
71107;BME280;58763;47.982;11.516;2023-04-06T02:03:47;94276.00;;;-0.62;62.69
71107;BME280;58763;47.982;11.516;2023-04-06T02:06:12;94275.78;;;-0.60;62.56
71107;BME280;58763;47.982;11.516;2023-04-06T02:08:38;94266.63;;;-0.64;62.34
71107;BME280;58763;47.982;11.516;2023-04-06T02:11:04;94269.09;;;-0.70;62.04
71107;BME280;58763;47.982;11.516;2023-04-06T02:13:30;94270.56;;;-0.74;63.17
71107;BME280;58763;47.982;11.516;2023-04-06T02:15:55;94276.13;;;-0.82;64.17
71107;BME280;58763;47.982;11.516;2023-04-06T02:18:22;94273.47;;;-0.82;63.46
71107;BME280;58763;47.982;11.516;2023-04-06T02:20:47;94271.22;;;-0.78;63.80
71107;BME280;58763;47.982;11.516;2023-04-06T02:23:13;94271.00;;;-0.77;63.10
71107;BME280;58763;47.982;11.516;2023-04-06T02:25:38;94274.50;;;-0.83;63.42
71107;BME280;58763;47.982;11.516;2023-04-06T02:28:04;94281.66;;;-0.83;63.85
71107;BME280;58763;47.982;11.516;2023-04-06T02:30:29;94271.09;;;-0.90;63.91
71107;BME280;58763;47.982;11.516;2023-04-06T02:32:57;94271.50;;;-0.93;63.89
71107;BME280;58763;47.982;11.516;2023-04-06T02:35:22;94271.75;;;-1.01;64.21
71107;BME280;58763;47.982;11.516;2023-04-06T02:37:48;94265.50;;;-1.13;64.32
71107;BME280;58763;47.982;11.516;2023-04-06T02:40:13;94265.91;;;-1.16;65.08
71107;BME280;58763;47.982;11.516;2023-04-06T02:42:39;94272.25;;;-1.17;65.57
71107;BME280;58763;47.982;11.516;2023-04-06T02:45:05;94266.41;;;-1.32;66.06
71107;BME280;58763;47.982;11.516;2023-04-06T02:47:31;94265.59;;;-1.32;65.92
71107;BME280;58763;47.982;11.516;2023-04-06T02:49:56;94265.53;;;-1.26;65.94
71107;BME280;58763;47.982;11.516;2023-04-06T02:52:22;94264.16;;;-1.35;65.70
71107;BME280;58763;47.982;11.516;2023-04-06T02:54:47;94263.75;;;-1.32;66.32
71107;BME280;58763;47.982;11.516;2023-04-06T02:57:13;94265.66;;;-1.46;66.83
71107;BME280;58763;47.982;11.516;2023-04-06T02:59:38;94262.25;;;-1.59;66.92
71107;BME280;58763;47.982;11.516;2023-04-06T03:02:04;94259.59;;;-1.59;67.12
71107;BME280;58763;47.982;11.516;2023-04-06T03:04:29;94263.59;;;-1.44;66.87
71107;BME280;58763;47.982;11.516;2023-04-06T03:06:55;94255.44;;;-1.49;66.53
71107;BME280;58763;47.982;11.516;2023-04-06T03:09:21;94260.13;;;-1.44;66.12
71107;BME280;58763;47.982;11.516;2023-04-06T03:11:47;94268.09;;;-1.44;65.94
71107;BME280;58763;47.982;11.516;2023-04-06T03:14:12;94261.16;;;-1.52;66.09
71107;BME280;58763;47.982;11.516;2023-04-06T03:16:38;94265.25;;;-1.49;65.81
71107;BME280;58763;47.982;11.516;2023-04-06T03:19:04;94260.34;;;-1.46;66.02
71107;BME280;58763;47.982;11.516;2023-04-06T03:21:29;94257.47;;;-1.44;65.88
71107;BME280;58763;47.982;11.516;2023-04-06T03:23:54;94258.28;;;-1.44;65.57
71107;BME280;58763;47.982;11.516;2023-04-06T03:26:20;94257.88;;;-1.41;65.78
71107;BME280;58763;47.982;11.516;2023-04-06T03:28:47;94259.06;;;-1.36;65.67
71107;BME280;58763;47.982;11.516;2023-04-06T03:31:13;94262.56;;;-1.36;65.79
71107;BME280;58763;47.982;11.516;2023-04-06T03:33:38;94265.22;;;-1.36;65.96
71107;BME280;58763;47.982;11.516;2023-04-06T03:36:04;94263.59;;;-1.44;66.16
71107;BME280;58763;47.982;11.516;2023-04-06T03:38:30;94267.44;;;-1.40;66.08
71107;BME280;58763;47.982;11.516;2023-04-06T03:40:56;94271.78;;;-1.45;65.97
71107;BME280;58763;47.982;11.516;2023-04-06T03:43:21;94272.16;;;-1.42;66.36
71107;BME280;58763;47.982;11.516;2023-04-06T03:45:47;94266.03;;;-1.35;66.18
71107;BME280;58763;47.982;11.516;2023-04-06T03:48:12;94260.69;;;-1.29;66.01
71107;BME280;58763;47.982;11.516;2023-04-06T03:50:38;94271.09;;;-1.34;66.39
71107;BME280;58763;47.982;11.516;2023-04-06T03:53:03;94269.84;;;-1.25;66.36
71107;BME280;58763;47.982;11.516;2023-04-06T03:55:29;94276.53;;;-1.16;65.72
71107;BME280;58763;47.982;11.516;2023-04-06T03:57:55;94270.38;;;-1.10;65.62
71107;BME280;58763;47.982;11.516;2023-04-06T04:00:20;94281.00;;;-1.10;65.36
71107;BME280;58763;47.982;11.516;2023-04-06T04:02:46;94285.28;;;-1.09;65.76
71107;BME280;58763;47.982;11.516;2023-04-06T04:05:11;94277.91;;;-1.07;65.43
71107;BME280;58763;47.982;11.516;2023-04-06T04:07:37;94293.97;;;-0.95;65.28
71107;BME280;58763;47.982;11.516;2023-04-06T04:10:03;94286.00;;;-0.95;64.88
71107;BME280;58763;47.982;11.516;2023-04-06T04:12:30;94284.81;;;-0.99;64.97
71107;BME280;58763;47.982;11.516;2023-04-06T04:14:55;94289.53;;;-1.01;65.18
71107;BME280;58763;47.982;11.516;2023-04-06T04:17:21;94289.91;;;-0.98;64.65
71107;BME280;58763;47.982;11.516;2023-04-06T04:19:47;94282.34;;;-0.94;64.82
71107;BME280;58763;47.982;11.516;2023-04-06T04:22:12;94293.22;;;-1.09;65.52
71107;BME280;58763;47.982;11.516;2023-04-06T04:24:38;94287.91;;;-1.09;65.45
71107;BME280;58763;47.982;11.516;2023-04-06T04:27:03;94283.47;;;-1.15;65.74
71107;BME280;58763;47.982;11.516;2023-04-06T04:29:30;94281.88;;;-1.22;66.05
71107;BME280;58763;47.982;11.516;2023-04-06T04:31:56;94291.81;;;-1.11;65.96
71107;BME280;58763;47.982;11.516;2023-04-06T04:34:22;94292.81;;;-1.06;65.63
71107;BME280;58763;47.982;11.516;2023-04-06T04:36:51;94290.75;;;-1.04;65.60
71107;BME280;58763;47.982;11.516;2023-04-06T04:39:16;94291.94;;;-1.00;65.65
71107;BME280;58763;47.982;11.516;2023-04-06T04:41:43;94296.38;;;-0.87;65.54
71107;BME280;58763;47.982;11.516;2023-04-06T04:44:09;94288.19;;;-0.86;65.25
71107;BME280;58763;47.982;11.516;2023-04-06T04:46:35;94287.78;;;-0.83;64.86
71107;BME280;58763;47.982;11.516;2023-04-06T04:49:00;94294.47;;;-0.74;64.81
71107;BME280;58763;47.982;11.516;2023-04-06T04:51:26;94297.28;;;-0.68;64.66
71107;BME280;58763;47.982;11.516;2023-04-06T04:53:51;94291.13;;;-0.62;64.14
71107;BME280;58763;47.982;11.516;2023-04-06T04:56:17;94288.47;;;-0.62;64.13
71107;BME280;58763;47.982;11.516;2023-04-06T04:58:43;94292.75;;;-0.61;64.06
71107;BME280;58763;47.982;11.516;2023-04-06T05:01:08;94297.03;;;-0.60;64.29
71107;BME280;58763;47.982;11.516;2023-04-06T05:03:34;94291.06;;;-0.56;63.93
71107;BME280;58763;47.982;11.516;2023-04-06T05:06:01;94292.06;;;-0.50;63.41
71107;BME280;58763;47.982;11.516;2023-04-06T05:08:26;94289.69;;;-0.65;64.22
71107;BME280;58763;47.982;11.516;2023-04-06T05:10:52;94293.00;;;-0.70;64.41
71107;BME280;58763;47.982;11.516;2023-04-06T05:13:17;94291.38;;;-0.71;64.52
71107;BME280;58763;47.982;11.516;2023-04-06T05:15:43;94295.66;;;-0.70;64.43
71107;BME280;58763;47.982;11.516;2023-04-06T05:18:09;94286.63;;;-0.62;65.79
71107;BME280;58763;47.982;11.516;2023-04-06T05:20:35;94289.28;;;-0.62;65.14
71107;BME280;58763;47.982;11.516;2023-04-06T05:23:01;94296.00;;;-0.59;64.35
71107;BME280;58763;47.982;11.516;2023-04-06T05:25:27;94295.59;;;-0.56;64.46
71107;BME280;58763;47.982;11.516;2023-04-06T05:27:53;94296.78;;;-0.52;64.30
71107;BME280;58763;47.982;11.516;2023-04-06T05:30:19;94287.16;;;-0.47;64.06
71107;BME280;58763;47.982;11.516;2023-04-06T05:32:46;94301.81;;;-0.44;64.00
71107;BME280;58763;47.982;11.516;2023-04-06T05:35:12;94294.47;;;-0.42;63.85
71107;BME280;58763;47.982;11.516;2023-04-06T05:37:38;94300.09;;;-0.32;64.13
71107;BME280;58763;47.982;11.516;2023-04-06T05:40:05;94306.22;;;-0.32;64.06
71107;BME280;58763;47.982;11.516;2023-04-06T05:42:37;94298.19;;;-0.25;63.94
71107;BME280;58763;47.982;11.516;2023-04-06T05:45:05;94296.13;;;-0.23;64.21
71107;BME280;58763;47.982;11.516;2023-04-06T05:47:31;94302.50;;;-0.24;64.10
71107;BME280;58763;47.982;11.516;2023-04-06T05:49:56;94301.50;;;-0.30;64.72
71107;BME280;58763;47.982;11.516;2023-04-06T05:52:22;94305.41;;;-0.32;64.61
71107;BME280;58763;47.982;11.516;2023-04-06T05:54:47;94300.75;;;-0.37;64.63
71107;BME280;58763;47.982;11.516;2023-04-06T05:57:13;94306.09;;;-0.43;65.52
71107;BME280;58763;47.982;11.516;2023-04-06T05:59:38;94306.00;;;-0.30;65.42
71107;BME280;58763;47.982;11.516;2023-04-06T06:02:04;94304.56;;;-0.26;65.63
71107;BME280;58763;47.982;11.516;2023-04-06T06:04:30;94306.50;;;-0.15;65.68
71107;BME280;58763;47.982;11.516;2023-04-06T06:06:56;94302.38;;;-0.11;66.11
71107;BME280;58763;47.982;11.516;2023-04-06T06:09:23;94305.19;;;-0.06;66.59
71107;BME280;58763;47.982;11.516;2023-04-06T06:11:49;94304.63;;;0.10;65.92
71107;BME280;58763;47.982;11.516;2023-04-06T06:14:15;94298.31;;;0.11;66.22
71107;BME280;58763;47.982;11.516;2023-04-06T06:16:41;94297.00;;;0.20;65.50
71107;BME280;58763;47.982;11.516;2023-04-06T06:19:06;94298.59;;;0.21;65.56
71107;BME280;58763;47.982;11.516;2023-04-06T06:21:32;94303.66;;;0.29;65.50
71107;BME280;58763;47.982;11.516;2023-04-06T06:23:57;94304.97;;;0.38;64.97
71107;BME280;58763;47.982;11.516;2023-04-06T06:26:23;94310.03;;;0.46;65.05
71107;BME280;58763;47.982;11.516;2023-04-06T06:28:49;94308.13;;;0.53;64.11
71107;BME280;58763;47.982;11.516;2023-04-06T06:31:14;94308.81;;;0.42;64.85
71107;BME280;58763;47.982;11.516;2023-04-06T06:33:40;94303.97;;;0.39;64.92
71107;BME280;58763;47.982;11.516;2023-04-06T06:36:05;94309.63;;;0.43;65.07
71107;BME280;58763;47.982;11.516;2023-04-06T06:38:31;94303.97;;;0.57;64.93
71107;BME280;58763;47.982;11.516;2023-04-06T06:40:57;94315.94;;;0.66;65.82
71107;BME280;58763;47.982;11.516;2023-04-06T06:43:23;94311.66;;;0.84;66.04
71107;BME280;58763;47.982;11.516;2023-04-06T06:45:49;94316.00;;;0.96;65.37
71107;BME280;58763;47.982;11.516;2023-04-06T06:48:15;94317.94;;;1.07;65.51
71107;BME280;58763;47.982;11.516;2023-04-06T06:50:41;94309.25;;;1.12;65.73
71107;BME280;58763;47.982;11.516;2023-04-06T06:53:06;94317.47;;;1.10;65.29
71107;BME280;58763;47.982;11.516;2023-04-06T06:55:32;94311.69;;;1.13;65.29
71107;BME280;58763;47.982;11.516;2023-04-06T06:57:57;94311.97;;;1.23;64.39
71107;BME280;58763;47.982;11.516;2023-04-06T07:00:23;94319.63;;;1.31;65.10
71107;BME280;58763;47.982;11.516;2023-04-06T07:02:49;94315.28;;;1.37;63.55
71107;BME280;58763;47.982;11.516;2023-04-06T07:05:15;94318.25;;;1.59;62.46
71107;BME280;58763;47.982;11.516;2023-04-06T07:07:41;94314.69;;;1.76;63.19
71107;BME280;58763;47.982;11.516;2023-04-06T07:10:07;94312.44;;;2.15;67.47
71107;BME280;58763;47.982;11.516;2023-04-06T07:12:33;94312.47;;;2.49;67.47
71107;BME280;58763;47.982;11.516;2023-04-06T07:14:58;94312.63;;;2.83;66.98
71107;BME280;58763;47.982;11.516;2023-04-06T07:17:24;94309.88;;;3.29;63.84
71107;BME280;58763;47.982;11.516;2023-04-06T07:19:50;94310.72;;;3.74;57.44
71107;BME280;58763;47.982;11.516;2023-04-06T07:22:15;94314.34;;;4.13;61.77
71107;BME280;58763;47.982;11.516;2023-04-06T07:24:41;94319.84;;;4.40;60.64
71107;BME280;58763;47.982;11.516;2023-04-06T07:27:06;94314.50;;;4.56;57.59
71107;BME280;58763;47.982;11.516;2023-04-06T07:29:32;94319.38;;;4.59;54.96
71107;BME280;58763;47.982;11.516;2023-04-06T07:31:58;94316.03;;;4.90;52.14
71107;BME280;58763;47.982;11.516;2023-04-06T07:34:23;94315.47;;;5.27;50.41
71107;BME280;58763;47.982;11.516;2023-04-06T07:36:49;94321.59;;;5.71;50.12
71107;BME280;58763;47.982;11.516;2023-04-06T07:39:15;94323.16;;;5.88;48.71
71107;BME280;58763;47.982;11.516;2023-04-06T07:41:41;94322.09;;;6.16;50.86
71107;BME280;58763;47.982;11.516;2023-04-06T07:44:06;94321.53;;;6.46;52.13
71107;BME280;58763;47.982;11.516;2023-04-06T07:46:32;94318.56;;;6.79;49.11
71107;BME280;58763;47.982;11.516;2023-04-06T07:48:59;94319.81;;;7.08;47.39
71107;BME280;58763;47.982;11.516;2023-04-06T07:51:25;94312.41;;;7.35;46.27
71107;BME280;58763;47.982;11.516;2023-04-06T07:53:51;94316.78;;;7.46;44.78
71107;BME280;58763;47.982;11.516;2023-04-06T07:56:17;94309.31;;;7.63;44.11
71107;BME280;58763;47.982;11.516;2023-04-06T07:58:44;94312.53;;;7.65;44.32
71107;BME280;58763;47.982;11.516;2023-04-06T08:01:10;94316.63;;;7.78;45.45
71107;BME280;58763;47.982;11.516;2023-04-06T08:03:36;94314.47;;;7.80;44.30
71107;BME280;58763;47.982;11.516;2023-04-06T08:06:02;94303.69;;;7.75;43.11
71107;BME280;58763;47.982;11.516;2023-04-06T08:08:28;94318.22;;;7.69;42.78
71107;BME280;58763;47.982;11.516;2023-04-06T08:10:54;94318.94;;;7.49;42.62
71107;BME280;58763;47.982;11.516;2023-04-06T08:13:20;94313.72;;;7.23;43.18
71107;BME280;58763;47.982;11.516;2023-04-06T08:15:45;94321.50;;;7.24;44.86
71107;BME280;58763;47.982;11.516;2023-04-06T08:18:11;94312.19;;;7.42;43.35
71107;BME280;58763;47.982;11.516;2023-04-06T08:20:37;94313.66;;;7.75;42.43
71107;BME280;58763;47.982;11.516;2023-04-06T08:23:02;94315.56;;;7.89;42.21
71107;BME280;58763;47.982;11.516;2023-04-06T08:25:28;94307.81;;;8.18;41.96
71107;BME280;58763;47.982;11.516;2023-04-06T08:27:54;94312.13;;;8.14;42.02
71107;BME280;58763;47.982;11.516;2023-04-06T08:30:20;94309.75;;;8.27;40.70
71107;BME280;58763;47.982;11.516;2023-04-06T08:32:46;94306.81;;;8.49;40.13
71107;BME280;58763;47.982;11.516;2023-04-06T08:35:11;94308.69;;;8.69;40.36
71107;BME280;58763;47.982;11.516;2023-04-06T08:37:37;94312.44;;;8.88;38.35
71107;BME280;58763;47.982;11.516;2023-04-06T08:40:04;94306.47;;;9.06;38.37
71107;BME280;58763;47.982;11.516;2023-04-06T08:42:32;94300.06;;;8.82;36.94
71107;BME280;58763;47.982;11.516;2023-04-06T08:44:59;94303.53;;;8.82;38.73
71107;BME280;58763;47.982;11.516;2023-04-06T08:47:25;94301.94;;;8.81;38.71
71107;BME280;58763;47.982;11.516;2023-04-06T08:49:52;94303.25;;;9.09;37.94
71107;BME280;58763;47.982;11.516;2023-04-06T08:52:18;94306.09;;;9.48;36.99
71107;BME280;58763;47.982;11.516;2023-04-06T08:54:45;94308.25;;;9.46;35.56
71107;BME280;58763;47.982;11.516;2023-04-06T08:57:11;94308.75;;;9.58;35.83
71107;BME280;58763;47.982;11.516;2023-04-06T08:59:37;94300.16;;;9.51;33.88
71107;BME280;58763;47.982;11.516;2023-04-06T09:02:03;94308.75;;;9.58;35.78
71107;BME280;58763;47.982;11.516;2023-04-06T09:04:32;94314.25;;;9.38;34.81
71107;BME280;58763;47.982;11.516;2023-04-06T09:07:00;94306.91;;;9.48;35.78
71107;BME280;58763;47.982;11.516;2023-04-06T09:09:26;94306.88;;;9.53;34.92
71107;BME280;58763;47.982;11.516;2023-04-06T09:11:51;94308.22;;;9.61;35.27
71107;BME280;58763;47.982;11.516;2023-04-06T09:14:33;94307.41;;;9.60;34.06
71107;BME280;58763;47.982;11.516;2023-04-06T09:16:59;94301.81;;;9.42;35.64
71107;BME280;58763;47.982;11.516;2023-04-06T09:19:25;94306.94;;;9.38;34.65
71107;BME280;58763;47.982;11.516;2023-04-06T09:22:01;94303.38;;;9.53;34.92
71107;BME280;58763;47.982;11.516;2023-04-06T09:24:27;94305.00;;;9.59;35.74
71107;BME280;58763;47.982;11.516;2023-04-06T09:26:53;94306.53;;;9.75;35.15
71107;BME280;58763;47.982;11.516;2023-04-06T09:29:26;94301.06;;;9.85;34.16
71107;BME280;58763;47.982;11.516;2023-04-06T09:31:52;94302.00;;;9.55;34.82
71107;BME280;58763;47.982;11.516;2023-04-06T09:34:21;94313.03;;;9.64;36.15
71107;BME280;58763;47.982;11.516;2023-04-06T09:36:48;94300.53;;;9.83;33.63
71107;BME280;58763;47.982;11.516;2023-04-06T09:39:14;94311.31;;;9.93;34.28
71107;BME280;58763;47.982;11.516;2023-04-06T09:41:40;94309.03;;;9.56;33.89
71107;BME280;58763;47.982;11.516;2023-04-06T09:44:10;94292.59;;;9.43;34.54
71107;BME280;58763;47.982;11.516;2023-04-06T09:46:44;94298.50;;;9.50;34.46
71107;BME280;58763;47.982;11.516;2023-04-06T09:49:11;94294.13;;;9.69;35.75
71107;BME280;58763;47.982;11.516;2023-04-06T09:51:56;94298.88;;;9.92;35.59
71107;BME280;58763;47.982;11.516;2023-04-06T09:54:28;94293.56;;;9.77;34.67
71107;BME280;58763;47.982;11.516;2023-04-06T09:57:05;94287.41;;;9.61;34.90
71107;BME280;58763;47.982;11.516;2023-04-06T10:03:32;94284.28;;;9.34;37.64
71107;BME280;58763;47.982;11.516;2023-04-06T10:06:05;94290.47;;;9.40;36.46
71107;BME280;58763;47.982;11.516;2023-04-06T10:08:27;94288.22;;;9.62;36.94
71107;BME280;58763;47.982;11.516;2023-04-06T10:10:54;94285.84;;;9.50;34.72
71107;BME280;58763;47.982;11.516;2023-04-06T10:13:20;94284.78;;;9.46;33.05
71107;BME280;58763;47.982;11.516;2023-04-06T10:15:46;94273.59;;;8.99;35.09
71107;BME280;58763;47.982;11.516;2023-04-06T10:18:13;94281.72;;;8.64;35.49
71107;BME280;58763;47.982;11.516;2023-04-06T10:21:01;94282.81;;;8.53;34.90
71107;BME280;58763;47.982;11.516;2023-04-06T10:23:38;94279.59;;;8.56;35.43
71107;BME280;58763;47.982;11.516;2023-04-06T10:26:05;94268.00;;;8.50;36.17
71107;BME280;58763;47.982;11.516;2023-04-06T10:28:41;94278.50;;;8.37;36.24
71107;BME280;58763;47.982;11.516;2023-04-06T10:31:07;94278.25;;;8.33;36.51
71107;BME280;58763;47.982;11.516;2023-04-06T10:33:33;94270.44;;;8.47;35.94
71107;BME280;58763;47.982;11.516;2023-04-06T10:36:13;94276.09;;;8.65;36.13
71107;BME280;58763;47.982;11.516;2023-04-06T10:38:39;94267.47;;;8.48;36.53
71107;BME280;58763;47.982;11.516;2023-04-06T10:41:06;94276.56;;;8.22;35.92
71107;BME280;58763;47.982;11.516;2023-04-06T10:43:33;94270.09;;;8.03;38.48
71107;BME280;58763;47.982;11.516;2023-04-06T10:46:03;94282.69;;;7.77;37.70
71107;BME280;58763;47.982;11.516;2023-04-06T10:48:38;94277.00;;;7.58;37.65
71107;BME280;58763;47.982;11.516;2023-04-06T10:51:14;94276.50;;;7.66;37.85
71107;BME280;58763;47.982;11.516;2023-04-06T10:53:45;94263.88;;;7.82;37.11
71107;BME280;58763;47.982;11.516;2023-04-06T10:56:15;94263.06;;;7.77;37.49
71107;BME280;58763;47.982;11.516;2023-04-06T10:58:47;94271.13;;;7.87;38.08
71107;BME280;58763;47.982;11.516;2023-04-06T11:01:17;94263.63;;;7.89;36.99
71107;BME280;58763;47.982;11.516;2023-04-06T11:03:51;94267.38;;;7.88;38.19
71107;BME280;58763;47.982;11.516;2023-04-06T11:06:21;94255.56;;;8.24;37.44
71107;BME280;58763;47.982;11.516;2023-04-06T11:08:47;94260.19;;;8.49;37.95
71107;BME280;58763;47.982;11.516;2023-04-06T11:11:14;94256.16;;;8.41;37.16
71107;BME280;58763;47.982;11.516;2023-04-06T11:13:50;94258.81;;;8.76;38.60
71107;BME280;58763;47.982;11.516;2023-04-06T11:16:24;94251.19;;;9.09;35.44
71107;BME280;58763;47.982;11.516;2023-04-06T11:18:54;94248.97;;;9.31;35.48
71107;BME280;58763;47.982;11.516;2023-04-06T11:21:46;94244.94;;;9.82;33.63
71107;BME280;58763;47.982;11.516;2023-04-06T11:24:23;94236.84;;;10.21;34.54
71107;BME280;58763;47.982;11.516;2023-04-06T11:26:56;94238.16;;;10.57;31.13
71107;BME280;58763;47.982;11.516;2023-04-06T11:29:29;94232.69;;;10.96;33.17
71107;BME280;58763;47.982;11.516;2023-04-06T11:32:04;94231.13;;;11.37;29.65
71107;BME280;58763;47.982;11.516;2023-04-06T11:34:32;94235.13;;;11.68;31.92
71107;BME280;58763;47.982;11.516;2023-04-06T11:37:00;94226.25;;;11.82;30.32
71107;BME280;58763;47.982;11.516;2023-04-06T11:39:28;94222.28;;;11.74;29.15
71107;BME280;58763;47.982;11.516;2023-04-06T11:41:55;94221.72;;;11.77;30.79
71107;BME280;58763;47.982;11.516;2023-04-06T11:46:54;94215.22;;;11.54;31.74
71107;BME280;58763;47.982;11.516;2023-04-06T11:49:22;94220.09;;;11.34;31.71
71107;BME280;58763;47.982;11.516;2023-04-06T11:51:47;94218.94;;;11.58;31.43
71107;BME280;58763;47.982;11.516;2023-04-06T11:54:13;94211.34;;;11.60;30.76
71107;BME280;58763;47.982;11.516;2023-04-06T11:56:38;94201.78;;;11.68;30.12
71107;BME280;58763;47.982;11.516;2023-04-06T11:59:04;94211.13;;;11.81;30.86
71107;BME280;58763;47.982;11.516;2023-04-06T12:01:29;94205.84;;;11.89;31.20
71107;BME280;58763;47.982;11.516;2023-04-06T12:03:55;94211.69;;;12.15;32.49
71107;BME280;58763;47.982;11.516;2023-04-06T12:06:21;94208.03;;;12.24;31.23
71107;BME280;58763;47.982;11.516;2023-04-06T12:08:47;94201.84;;;12.37;30.76
71107;BME280;58763;47.982;11.516;2023-04-06T12:11:12;94201.25;;;12.40;30.04
71107;BME280;58763;47.982;11.516;2023-04-06T12:13:38;94198.56;;;12.22;29.48
71107;BME280;58763;47.982;11.516;2023-04-06T12:16:04;94195.00;;;11.70;29.25
71107;BME280;58763;47.982;11.516;2023-04-06T12:18:30;94200.22;;;11.43;30.64
71107;BME280;58763;47.982;11.516;2023-04-06T12:20:56;94193.94;;;11.66;30.33
71107;BME280;58763;47.982;11.516;2023-04-06T12:23:21;94196.31;;;11.92;30.86
71107;BME280;58763;47.982;11.516;2023-04-06T12:25:47;94189.50;;;12.13;29.75
71107;BME280;58763;47.982;11.516;2023-04-06T12:28:12;94192.88;;;12.37;30.94
71107;BME280;58763;47.982;11.516;2023-04-06T12:30:40;94181.91;;;12.61;31.15
71107;BME280;58763;47.982;11.516;2023-04-06T12:33:07;94188.38;;;12.65;30.96
71107;BME280;58763;47.982;11.516;2023-04-06T12:35:33;94188.00;;;12.71;30.61
71107;BME280;58763;47.982;11.516;2023-04-06T12:37:59;94196.97;;;12.85;29.59
71107;BME280;58763;47.982;11.516;2023-04-06T12:40:25;94178.66;;;12.91;29.73
71107;BME280;58763;47.982;11.516;2023-04-06T12:42:50;94185.19;;;12.90;29.20
71107;BME280;58763;47.982;11.516;2023-04-06T12:45:16;94183.25;;;12.77;29.61
71107;BME280;58763;47.982;11.516;2023-04-06T12:47:41;94184.78;;;12.69;28.86
71107;BME280;58763;47.982;11.516;2023-04-06T12:50:07;94179.94;;;12.34;29.32
71107;BME280;58763;47.982;11.516;2023-04-06T12:52:33;94181.53;;;12.35;31.08
71107;BME280;58763;47.982;11.516;2023-04-06T12:55:01;94173.75;;;12.47;31.45
71107;BME280;58763;47.982;11.516;2023-04-06T12:57:27;94169.59;;;12.36;29.35
71107;BME280;58763;47.982;11.516;2023-04-06T12:59:53;94178.09;;;12.48;31.33
71107;BME280;58763;47.982;11.516;2023-04-06T13:02:18;94173.28;;;12.59;32.67